Latest Weather Observations for West Wyalong

IDN60801

Issued at 7:35 pm EST Wednesday 23 July 2014 (issued every 30 minutes, with the page automatically refreshed every 10 minutes)

About weather observations | Map of weather stations | Latest weather observations for NSW | Other Formats
Station Details ID: 050017 Name: WEST WYALONG AIRPORT AWS Lat: -33.94 Lon: 147.20 Height: 257.0 m
Data from the previous 72 hours. | See also: Recent months for locations in New South Wales
Date/Time
EST
Temp
°C
App
Temp
°C
Dew
Point
Rel
Hum
%
Delta-T
°C
Wind Press
QNH
hPa
Press
MSL
hPa
Rain
since 9 am
mm
Dir
 
Spd
km/h
Gust
km/h
Spd
kts
Gust
kts
23/07:30pm 9.7 7.4 7.5 86 1.1 ENE 9 13 5 7 1020.7 - 0.0
23/07:00pm 9.8 7.9 7.4 85 1.2 E 7 9 4 5 1020.6 - 0.0
23/06:30pm 9.9 8.0 7.7 86 1.1 E 7 9 4 5 1020.5 - 0.0
23/06:00pm 9.9 7.9 7.2 83 1.3 E 7 9 4 5 1020.4 1020.9 0.0
23/05:30pm 10.7 8.7 7.0 78 1.8 E 7 9 4 5 1020.4 - 0.0
23/05:00pm 12.2 10.2 7.1 71 2.5 ENE 7 9 4 5 1020.4 - 0.0
23/04:30pm 13.4 11.0 7.2 66 3.1 NE 9 11 5 6 1020.5 - 0.0
23/04:00pm 13.1 10.8 7.5 69 2.8 NE 9 13 5 7 1020.5 - 0.0
23/03:30pm 13.3 11.0 7.3 67 3.0 ENE 9 13 5 7 1020.4 - 0.0
23/03:00pm 13.8 11.5 7.6 66 3.1 NE 9 13 5 7 1020.7 1021.2 0.0
23/02:30pm 13.5 11.1 6.8 64 3.3 NNE 9 13 5 7 1020.7 - 0.0
23/02:00pm 13.7 11.3 7.0 64 3.3 NNE 9 13 5 7 1021.0 - 0.0
23/01:30pm 13.4 10.7 7.2 66 3.1 NNE 11 15 6 8 1021.3 - 0.0
23/01:00pm 13.0 9.8 7.0 67 2.9 NNE 13 17 7 9 1021.6 - 0.0
23/12:30pm 12.7 9.8 6.7 67 2.9 NNE 11 15 6 8 1022.0 - 0.0
23/12:00pm 12.7 10.4 7.4 70 2.6 NNE 9 15 5 8 1022.6 1023.0 0.0
23/11:30am 12.3 9.6 7.4 72 2.4 N 11 17 6 9 1023.3 - 0.0
23/11:00am 11.3 8.9 7.2 76 2.0 NE 9 15 5 8 1023.9 - 0.0
23/10:30am 10.1 7.9 7.7 85 1.2 NNE 9 13 5 7 1024.3 - 0.0
23/10:00am 8.1 6.0 8.1 100 0.0 NE 9 11 5 6 1024.6 - 0.0
23/09:30am 6.2 5.3 6.2 100 0.0 CALM 0 0 0 0 1024.7 - 0.0
23/09:00am 4.1 2.4 4.1 100 0.0 SW 2 7 1 4 1024.7 1025.2 0.0
23/08:30am 0.8 -1.1 0.7 99 0.0 CALM 0 0 0 0 1024.6 - 0.0
23/08:00am -0.7 -2.8 -0.8 99 0.0 CALM 0 0 0 0 1024.4 - 0.0
23/07:30am -1.8 -4.0 -1.9 99 0.0 CALM 0 0 0 0 1024.3 - 0.0
23/07:00am -1.8 -4.0 -1.9 99 0.0 CALM 0 0 0 0 1024.1 - 0.0
23/06:30am -1.8 -4.8 -1.9 99 0.0 WSW 4 6 2 3 1023.6 - 0.0
23/06:00am -1.7 -5.1 -1.8 99 0.0 WSW 6 7 3 4 1023.4 1023.9 0.0
23/05:30am -1.9 -4.2 -2.0 99 -0.1 CALM 0 0 0 0 1023.2 - 0.0
23/05:00am -1.8 -4.0 -1.9 99 0.0 CALM 0 0 0 0 1023.1 - 0.0
23/04:30am -1.0 -3.1 -1.1 99 0.0 CALM 0 0 0 0 1023.0 - 0.0
23/04:00am -1.0 -3.1 -1.1 99 0.0 CALM 0 0 0 0 1023.0 - 0.0
23/03:30am -0.8 -2.9 -0.9 99 0.0 CALM 0 0 0 0 1023.1 - 0.0
23/03:00am -0.7 -2.8 -0.8 99 0.0 CALM 0 0 0 0 1023.1 1023.6 0.0
23/02:30am -0.7 -2.8 -0.8 99 0.0 CALM 0 0 0 0 1023.2 - 0.0
23/02:00am -0.3 -3.5 -0.4 99 0.0 WSW 6 6 3 3 1023.1 - 0.0
23/01:30am -0.3 -3.5 -0.4 99 0.0 WSW 6 7 3 4 1023.1 - 0.0
23/01:00am 0.2 -2.9 0.1 99 0.0 WSW 6 6 3 3 1023.3 - 0.0
23/12:30am 0.5 -2.6 0.4 99 0.0 WSW 6 6 3 3 1023.6 - 0.0
23/12:00am 0.8 -2.2 0.7 99 0.0 WSW 6 6 3 3 1023.9 1024.4 0.0
 
Date/Time
EST
Temp
°C
App
Temp
°C
Dew
Point
Rel
Hum
%
Delta-T
°C
Wind Press
QNH
hPa
Press
MSL
hPa
Rain
since 9 am
mm
Dir
 
Spd
km/h
Gust
km/h
Spd
kts
Gust
kts
22/11:30pm 1.0 -2.2 0.9 99 0.0 WSW 7 9 4 5 1024.2 - 0.0
22/11:00pm 0.7 -2.4 0.4 98 0.1 WSW 6 7 3 4 1024.3 - 0.0
22/10:30pm 0.9 -2.3 0.6 98 0.1 WSW 7 9 4 5 1024.2 - 0.0
22/10:00pm 1.5 -1.6 1.2 98 0.1 W 7 7 4 4 1023.8 - 0.0
22/09:30pm 1.7 -1.4 1.3 97 0.2 W 7 7 4 4 1023.7 - 0.0
22/09:00pm 2.5 -0.3 1.9 96 0.2 W 6 7 3 4 1023.6 1024.1 0.0
22/08:30pm 2.7 -0.1 2.0 95 0.3 W 6 6 3 3 1023.5 - 0.0
22/08:00pm 3.6 0.9 2.9 95 0.3 WSW 6 7 3 4 1023.6 - 0.0
22/07:30pm 3.9 1.2 2.7 92 0.5 WSW 6 6 3 3 1023.6 - 0.0
22/07:00pm 4.7 2.0 2.9 88 0.7 WSW 6 7 3 4 1023.6 - 0.0
22/06:30pm 5.7 2.9 3.0 83 1.1 WSW 7 7 4 4 1023.6 - 0.0
22/06:00pm 7.5 4.8 3.6 76 1.7 WSW 7 9 4 5 1023.5 1024.0 0.0
22/05:30pm 9.8 7.2 4.4 69 2.4 S 7 9 4 5 1023.2 - 0.0
22/05:00pm 12.4 9.9 4.6 59 3.6 S 7 9 4 5 1023.0 - 0.0
22/04:30pm 13.3 10.4 4.5 55 4.1 SSE 9 13 5 7 1022.8 - 0.0
22/04:00pm 13.6 10.1 3.7 51 4.5 SSE 11 13 6 7 1022.9 - 0.0
22/03:30pm 14.0 9.9 2.0 44 5.3 S 13 15 7 8 1022.9 - 0.0
22/03:00pm 14.3 10.6 2.2 44 5.4 S 11 15 6 8 1022.8 1023.2 0.0
22/02:30pm 14.2 10.0 1.5 42 5.6 SSW 13 19 7 10 1022.8 - 0.0
22/02:00pm 14.4 10.3 2.0 43 5.5 SW 13 17 7 9 1022.8 - 0.0
22/01:30pm 14.3 11.2 3.7 49 4.9 SSW 9 17 5 9 1022.9 - 0.0
22/01:00pm 14.2 11.1 3.7 49 4.8 S 9 15 5 8 1023.2 - 0.0
22/12:30pm 13.4 10.0 3.8 52 4.4 SSE 11 15 6 8 1023.6 - 0.0
22/12:00pm 13.1 9.7 4.0 54 4.2 S 11 15 6 8 1024.2 1024.7 0.0
22/11:30am 12.5 9.8 5.4 62 3.3 S 9 17 5 9 1024.8 - 0.0
22/11:00am 11.7 9.1 6.0 68 2.7 SSE 9 13 5 7 1025.1 - 0.0
22/10:30am 10.9 9.4 6.6 75 2.1 SE 4 9 2 5 1025.5 - 0.0
22/10:00am 9.2 6.9 5.9 80 1.5 SSE 7 9 4 5 1025.5 - 0.0
22/09:30am 7.9 5.7 6.2 89 0.8 SSE 7 9 4 5 1025.4 - 0.0
22/09:00am 7.0 5.2 7.0 100 0.0 SSE 6 9 3 5 1025.2 1025.7 0.0
22/08:30am 4.0 2.7 4.0 100 0.0 CALM 0 0 0 0 1025.0 - 0.0
22/08:00am 2.0 0.3 1.9 99 0.0 CALM 0 0 0 0 1024.5 - 0.0
22/07:30am -0.2 -2.2 -0.3 99 0.0 CALM 0 0 0 0 1024.2 - 0.0
22/07:00am -0.2 -2.2 -0.3 99 0.0 CALM 0 0 0 0 1023.8 - 0.0
22/06:30am -0.1 -2.1 -0.2 99 0.0 CALM 0 0 0 0 1023.6 - 0.0
22/06:00am 0.4 -1.5 0.3 99 0.0 CALM 0 0 0 0 1023.4 1023.9 0.0
22/05:30am 0.8 -2.4 0.7 99 0.0 WSW 7 9 4 5 1023.2 - 0.0
22/05:00am 0.6 -2.4 0.5 99 0.0 WSW 6 6 3 3 1023.1 - 0.0
22/04:30am 1.0 -2.0 0.9 99 0.0 WSW 6 7 3 4 1023.1 - 0.0
22/04:00am 0.9 -2.3 0.8 99 0.0 SW 7 7 4 4 1023.2 - 0.0
22/03:30am 1.1 -2.1 1.0 99 0.0 WSW 7 9 4 5 1023.2 - 0.0
22/03:00am 1.3 -1.8 1.2 99 0.0 WSW 7 7 4 4 1023.2 1023.7 0.0
22/02:30am 1.2 -1.9 1.1 99 0.0 WSW 7 9 4 5 1023.3 - 0.0
22/02:00am 1.2 -1.9 1.1 99 0.0 SW 7 9 4 5 1023.1 - 0.0
22/01:30am 2.2 -0.6 2.1 99 0.0 SW 6 7 3 4 1023.1 - 0.0
22/01:00am 2.0 -0.4 1.9 99 0.0 WSW 4 6 2 3 1023.1 - 0.0
22/12:30am 2.7 0.4 2.6 99 0.0 WSW 4 6 2 3 1023.3 - 0.0
22/12:00am 3.0 0.3 2.9 99 0.0 WSW 6 7 3 4 1023.5 1024.0 0.0
 
Date/Time
EST
Temp
°C
App
Temp
°C
Dew
Point
Rel
Hum
%
Delta-T
°C
Wind Press
QNH
hPa
Press
MSL
hPa
Rain
since 9 am
mm
Dir
 
Spd
km/h
Gust
km/h
Spd
kts
Gust
kts
21/11:30pm 2.8 0.5 2.7 99 0.0 WSW 4 6 2 3 1023.5 - 0.0
21/11:00pm 3.6 0.9 3.5 99 0.0 WSW 7 7 4 4 1023.8 - 0.0
21/10:30pm 3.6 0.9 3.5 99 0.0 SW 7 7 4 4 1023.7 - 0.0
21/10:00pm 3.5 0.8 2.6 94 0.4 WSW 6 6 3 3 1023.8 - 0.0
21/09:30pm 4.7 2.3 4.1 96 0.3 WSW 6 7 3 4 1023.8 - 0.0
21/09:00pm 4.8 2.3 3.9 94 0.4 SW 6 7 3 4 1024.0 1024.5 0.0
21/08:30pm 5.5 3.2 4.8 95 0.3 SSW 6 6 3 3 1023.7 - 0.0
21/08:00pm 6.0 3.8 5.1 94 0.4 S 6 6 3 3 1023.7 - 0.0
21/07:30pm 6.9 5.9 5.5 91 0.6 CALM 0 0 0 0 1023.7 - 0.0
21/07:00pm 7.5 6.5 5.6 88 0.9 CALM 0 0 0 0 1023.5 - 0.0
21/06:30pm 8.4 6.7 5.7 83 1.2 SSE 4 6 2 3 1023.5 - 0.0
21/06:00pm 9.1 6.9 5.5 78 1.6 SE 6 7 3 4 1023.2 1023.7 0.0
21/05:30pm 10.0 7.6 5.4 73 2.1 SE 7 7 4 4 1023.0 - 0.0
21/05:00pm 10.9 8.5 5.4 69 2.6 SE 7 7 4 4 1022.9 - 0.0
21/04:30pm 12.6 10.2 5.3 61 3.4 SE 7 9 4 5 1023.0 - 0.0
21/04:00pm 13.4 10.2 5.1 57 3.9 SE 11 13 6 7 1022.9 - 0.0
21/03:30pm 14.5 11.4 5.6 55 4.3 SE 11 15 6 8 1022.7 - 0.0
21/03:00pm 14.4 11.4 4.1 50 4.8 SE 9 15 5 8 1022.8 1023.2 0.0
21/02:30pm 14.4 12.6 5.2 54 4.4 E 4 9 2 5 1022.9 - 0.0
21/02:00pm 14.4 12.1 5.7 56 4.2 E 7 13 4 7 1023.1 - 0.0
21/01:30pm 13.7 11.3 5.1 56 4.1 NE 7 9 4 5 1023.4 - 0.0
21/01:00pm 13.6 11.3 5.5 58 3.9 E 7 11 4 6 1023.7 - 0.0
21/12:30pm 13.0 10.8 5.4 60 3.6 E 6 11 3 6 1024.0 - 0.0
21/12:00pm 11.9 9.7 5.1 63 3.2 E 6 9 3 5 1024.6 1025.1 0.0
21/11:30am 11.2 8.9 5.5 68 2.7 E 7 11 4 6 1025.1 - 0.0
21/11:00am 9.1 7.4 5.7 79 1.6 ESE 4 9 2 5 1025.7 - 0.0
21/10:30am 7.3 5.9 5.6 89 0.8 E 2 7 1 4 1026.0 - 0.0
21/10:00am 5.8 3.6 5.2 96 0.3 SE 6 7 3 4 1026.1 - 0.0
21/09:30am 4.3 1.9 4.2 99 0.0 SE 6 7 3 4 1026.1 - 0.0
21/09:00am 3.4 0.8 3.3 99 0.0 SE 6 7 3 4 1025.9 1026.3 0.2
21/08:30am 2.2 0.5 2.1 99 0.0 CALM 0 0 0 0 1025.9 - 0.2
21/08:00am 1.1 -0.7 1.0 99 0.0 CALM 0 0 0 0 1025.8 - 0.2
21/07:30am 0.7 -1.2 0.6 99 0.0 CALM 0 0 0 0 1025.7 - 0.0
21/07:00am 0.4 -1.5 0.3 99 0.0 CALM 0 0 0 0 1025.5 - 0.0
21/06:30am 0.8 -1.5 0.7 99 0.0 S 2 6 1 3 1025.4 - 0.0
21/06:00am -0.4 -2.8 -0.5 99 0.0 S 2 4 1 2 1025.2 1025.7 0.0
21/05:30am -0.7 -2.8 -0.8 99 0.0 CALM 0 0 0 0 1025.0 - 0.0
21/05:00am -0.3 -2.7 -0.4 99 0.0 SW 2 6 1 3 1025.1 - 0.0
21/04:30am -0.1 -3.3 -0.2 99 0.0 SSW 6 6 3 3 1025.1 - 0.0
21/04:00am 0.0 -2.0 -0.1 99 0.0 CALM 0 0 0 0 1025.4 - 0.0
21/03:30am -0.6 -2.7 -0.7 99 0.0 CALM 0 0 0 0 1025.4 - 0.0
21/03:00am -0.3 -2.3 -0.4 99 0.0 CALM 0 0 0 0 1025.4 1025.8 0.0
21/02:30am 0.4 -2.7 0.3 99 0.0 SSW 6 7 3 4 1025.5 - 0.0
21/02:00am -0.1 -2.9 -0.2 99 0.0 SSE 4 7 2 4 1025.5 - 0.0
21/01:30am -0.5 -3.7 -0.6 99 0.0 S 6 7 3 4 1025.6 - 0.0
21/01:00am 0.4 -1.5 0.3 99 0.0 CALM 0 0 0 0 1025.8 - 0.0
21/12:30am 0.3 -2.1 -0.4 95 0.3 WSW 2 6 1 3 1025.9 - 0.0
21/12:00am 1.2 -0.7 0.3 94 0.3 CALM 0 0 0 0 1026.0 1026.4 0.0
 
Date/Time
EST
Temp
°C
App
Temp
°C
Dew
Point
Rel
Hum
%
Delta-T
°C
Wind Press
QNH
hPa
Press
MSL
hPa
Rain
since 9 am
mm
Dir
 
Spd
km/h
Gust
km/h
Spd
kts
Gust
kts
20/11:30pm 2.2 0.4 1.2 93 0.4 CALM 0 0 0 0 1025.9 - 0.0
20/11:00pm 3.1 0.3 1.8 91 0.5 SW 6 7 3 4 1025.9 - 0.0
20/10:30pm 3.1 0.6 1.6 90 0.6 SSW 4 6 2 3 1025.9 - 0.0
20/10:00pm 2.8 -0.1 1.3 90 0.6 SW 6 7 3 4 1026.0 - 0.0
20/09:30pm 2.6 0.1 1.7 94 0.4 SW 4 6 2 3 1026.1 - 0.0
20/09:00pm 2.8 -0.1 1.6 92 0.5 SW 6 7 3 4 1026.3 1026.8 0.0
20/08:30pm 3.3 0.5 2.1 92 0.5 WSW 6 7 3 4 1026.5 - 0.0
20/08:00pm 3.3 0.3 1.7 89 0.6 SW 7 9 4 5 1026.4 - 0.0

Other Formats:

Comma delimited format used in spreadsheet applications
http://www.bom.gov.au/fwo/IDN60801/IDN60801.95709.axf

JavaScript Object Notation format (JSON) in row-major order
http://www.bom.gov.au/fwo/IDN60801/IDN60801.95709.json